Time;durP1;ratioP1;P1;durP2;ratioP2;P2;SDS_P1;SDS_P2;PMS_P1;PMS_P2;Temp;Humidity;BMP_temperature;BMP_pressure;BME280_temperature;BME280_humidity;BME280_pressure;Samples;Min_cycle;Max_cycle;Signal;HPM_P1;HPM_P2
2023/12/13 06:00:23;;;;;;;;;6.00;2.00;;;;;;;;6028588;22;45207;-71
2023/12/13 06:02:49;;;;;;;;;2.00;2.00;;;;;;;;5054676;27;45412;-70
2023/12/13 06:05:14;;;;;;;;;3.25;2.00;;;;;;;;5056774;28;45239;-71
2023/12/13 06:07:39;;;;;;;;;3.00;1.50;;;;;;;;5058860;28;45221;-71
2023/12/13 06:10:05;;;;;;;;;0.50;0.25;;;;;;;;5057279;28;45454;-71
2023/12/13 06:12:31;;;;;;;;;3.00;2.00;;;;;;;;5054293;28;45496;-71
2023/12/13 06:14:58;;;;;;;;;0.75;0.75;;;;;;;;5055128;28;45362;-71
2023/12/13 06:17:23;;;;;;;;;4.50;2.25;;;;;;;;5053733;28;45318;-70
2023/12/13 06:19:48;;;;;;;;;5.75;3.00;;;;;;;;5058733;28;45235;-71
2023/12/13 06:22:14;;;;;;;;;3.00;1.00;;;;;;;;5055999;28;46033;-71
2023/12/13 06:24:39;;;;;;;;;2.75;2.75;;;;;;;;5058168;28;45236;-71
2023/12/13 06:27:04;;;;;;;;;2.00;2.00;;;;;;;;5053383;28;45441;-71
2023/12/13 06:29:29;;;;;;;;;2.00;1.00;;;;;;;;5040622;28;45244;-71
2023/12/13 06:31:55;;;;;;;;;6.75;2.00;;;;;;;;5054301;28;45999;-71
2023/12/13 06:34:20;;;;;;;;;1.50;1.00;;;;;;;;5059416;28;45337;-71
2023/12/13 06:36:45;;;;;;;;;3.00;1.00;;;;;;;;5055098;28;45336;-70
2023/12/13 06:39:11;;;;;;;;;2.25;2.00;;;;;;;;5059061;28;45300;-70
2023/12/13 06:41:40;;;;;;;;;2.00;1.00;;;;;;;;5070739;28;46958;-70
2023/12/13 06:44:05;;;;;;;;;4.75;3.00;;;;;;;;5058673;28;45256;-70
2023/12/13 06:46:31;;;;;;;;;1.00;1.00;;;;;;;;5054495;28;45319;-71
2023/12/13 06:48:56;;;;;;;;;5.50;2.00;;;;;;;;5058806;28;45362;-71
2023/12/13 06:51:21;;;;;;;;;2.75;1.00;;;;;;;;5052942;28;47445;-71
2023/12/13 06:53:47;;;;;;;;;0.75;0.75;;;;;;;;5055537;28;45234;-70
2023/12/13 06:56:12;;;;;;;;;3.25;0.75;;;;;;;;5054923;28;45194;-70
2023/12/13 06:58:37;;;;;;;;;3.75;2.00;;;;;;;;5055120;28;45557;-71
2023/12/13 07:01:04;;;;;;;;;3.75;2.25;;;;;;;;5051823;28;47020;-70
2023/12/13 07:03:29;;;;;;;;;5.00;3.25;;;;;;;;5058369;28;45228;-72
2023/12/13 07:05:54;;;;;;;;;3.50;3.50;;;;;;;;5055339;28;45469;-69
2023/12/13 07:08:20;;;;;;;;;3.75;2.25;;;;;;;;5054014;28;45421;-69
2023/12/13 07:10:45;;;;;;;;;4.50;3.00;;;;;;;;5053196;28;45298;-69
2023/12/13 07:13:10;;;;;;;;;7.75;2.00;;;;;;;;5057616;28;45507;-69
2023/12/13 07:15:35;;;;;;;;;5.25;3.25;;;;;;;;5054440;28;45358;-69
2023/12/13 07:18:00;;;;;;;;;4.00;2.25;;;;;;;;5055996;28;45418;-69
2023/12/13 07:20:25;;;;;;;;;2.75;2.75;;;;;;;;5056072;28;46366;-71
2023/12/13 07:22:51;;;;;;;;;4.00;4.00;;;;;;;;5054503;28;45322;-70
2023/12/13 07:25:16;;;;;;;;;3.00;3.00;;;;;;;;5060866;28;45228;-69
2023/12/13 07:27:41;;;;;;;;;5.50;3.00;;;;;;;;5057384;28;45298;-70
2023/12/13 07:30:07;;;;;;;;;4.25;2.00;;;;;;;;5060416;28;45377;-71
2023/12/13 07:32:33;;;;;;;;;3.00;1.00;;;;;;;;5057275;28;45477;-70
2023/12/13 07:34:58;;;;;;;;;3.75;2.00;;;;;;;;5061273;28;45335;-70
2023/12/13 07:37:23;;;;;;;;;4.00;2.25;;;;;;;;5054251;28;45563;-70
2023/12/13 07:39:49;;;;;;;;;2.00;2.00;;;;;;;;5062217;28;45283;-70
2023/12/13 07:42:14;;;;;;;;;2.25;2.25;;;;;;;;5056226;28;45272;-70
2023/12/13 07:44:39;;;;;;;;;1.00;1.00;;;;;;;;5062702;28;45299;-70
2023/12/13 07:47:05;;;;;;;;;3.00;2.00;;;;;;;;5055121;28;46373;-69
2023/12/13 07:49:30;;;;;;;;;1.50;1.50;;;;;;;;5061877;28;45203;-70
2023/12/13 07:51:55;;;;;;;;;7.00;1.25;;;;;;;;5060037;28;45311;-70
2023/12/13 07:54:21;;;;;;;;;1.75;1.00;;;;;;;;5062030;28;45216;-71
2023/12/13 07:56:49;;;;;;;;;1.75;1.50;;;;;;;;5050920;28;45296;-70
2023/12/13 07:59:14;;;;;;;;;2.00;1.00;;;;;;;;5061424;28;45463;-70
2023/12/13 08:01:39;;;;;;;;;1.50;1.00;;;;;;;;5050268;28;45480;-70
2023/12/13 08:04:05;;;;;;;;;1.25;1.00;;;;;;;;5060182;28;45328;-71
2023/12/13 08:06:30;;;;;;;;;1.00;1.00;;;;;;;;5056435;28;45457;-70
2023/12/13 08:08:56;;;;;;;;;2.00;1.00;;;;;;;;5061032;28;45296;-70
2023/12/13 08:11:21;;;;;;;;;4.00;1.00;;;;;;;;5054593;28;45446;-71
2023/12/13 08:13:48;;;;;;;;;4.00;1.00;;;;;;;;5061315;28;46473;-70
2023/12/13 08:16:13;;;;;;;;;3.00;1.75;;;;;;;;5055142;28;45451;-70
2023/12/13 08:18:39;;;;;;;;;2.00;1.00;;;;;;;;5060653;28;46616;-71
2023/12/13 08:21:06;;;;;;;;;1.00;1.00;;;;;;;;5055785;28;45492;-70
2023/12/13 08:23:31;;;;;;;;;2.50;0.75;;;;;;;;5060902;28;45278;-70
2023/12/13 08:25:56;;;;;;;;;2.25;1.50;;;;;;;;5055032;28;45370;-70
2023/12/13 08:28:21;;;;;;;;;1.00;1.00;;;;;;;;5060953;28;45133;-70
2023/12/13 08:30:47;;;;;;;;;1.50;1.50;;;;;;;;5055453;28;44749;-70
2023/12/13 08:33:12;;;;;;;;;3.00;0.75;;;;;;;;5061037;28;45408;-70
2023/12/13 08:35:37;;;;;;;;;0.75;0.50;;;;;;;;5056461;28;45378;-69
2023/12/13 08:38:03;;;;;;;;;1.25;1.00;;;;;;;;5058746;28;45350;-70
2023/12/13 08:40:29;;;;;;;;;3.25;1.75;;;;;;;;5073721;28;45455;-70
2023/12/13 08:42:54;;;;;;;;;3.00;1.25;;;;;;;;5059498;28;45407;-69
2023/12/13 08:45:19;;;;;;;;;2.50;1.00;;;;;;;;5059235;28;45332;-69
2023/12/13 08:47:44;;;;;;;;;2.25;2.25;;;;;;;;5060662;28;45396;-70
2023/12/13 08:50:10;;;;;;;;;2.00;2.00;;;;;;;;5059220;28;45301;-70
2023/12/13 08:52:35;;;;;;;;;4.00;1.75;;;;;;;;5052911;28;45290;-70
2023/12/13 08:55:00;;;;;;;;;2.25;2.00;;;;;;;;5058554;28;45497;-70
2023/12/13 08:57:25;;;;;;;;;1.00;1.00;;;;;;;;5053569;28;45306;-70
2023/12/13 08:59:50;;;;;;;;;7.25;1.00;;;;;;;;5060766;28;45258;-69
2023/12/13 09:02:16;;;;;;;;;2.50;1.00;;;;;;;;5053126;28;45345;-71
2023/12/13 09:04:41;;;;;;;;;3.00;2.00;;;;;;;;5060689;28;45756;-68
2023/12/13 09:07:06;;;;;;;;;2.00;2.00;;;;;;;;5055971;28;46168;-70
2023/12/13 09:09:31;;;;;;;;;4.25;1.00;;;;;;;;5059704;28;45656;-70
2023/12/13 09:11:59;;;;;;;;;4.50;2.25;;;;;;;;5055731;28;45464;-69
2023/12/13 09:14:25;;;;;;;;;4.00;1.00;;;;;;;;5057510;28;45303;-69
2023/12/13 09:16:50;;;;;;;;;4.75;1.00;;;;;;;;5055889;28;46391;-69
2023/12/13 09:19:16;;;;;;;;;1.00;1.00;;;;;;;;5060572;28;45240;-70
2023/12/13 09:21:41;;;;;;;;;1.50;1.50;;;;;;;;5057260;28;45211;-69
2023/12/13 09:24:07;;;;;;;;;2.00;2.00;;;;;;;;5058590;28;46073;-70
2023/12/13 09:26:33;;;;;;;;;2.00;2.00;;;;;;;;5053762;28;45302;-70
2023/12/13 09:28:58;;;;;;;;;4.75;1.50;;;;;;;;5060330;28;45219;-70
2023/12/13 09:31:24;;;;;;;;;3.25;2.25;;;;;;;;5053676;28;45148;-70
2023/12/13 09:33:50;;;;;;;;;5.00;2.00;;;;;;;;5060406;28;45685;-70
2023/12/13 09:36:17;;;;;;;;;1.75;1.00;;;;;;;;5054370;28;45321;-70
2023/12/13 09:38:42;;;;;;;;;1.50;1.50;;;;;;;;5056457;28;45328;-70
2023/12/13 09:41:08;;;;;;;;;3.25;2.00;;;;;;;;5054578;28;45362;-70
2023/12/13 09:43:37;;;;;;;;;1.25;1.25;;;;;;;;5057408;28;45333;-70
2023/12/13 09:46:05;;;;;;;;;2.50;1.25;;;;;;;;5055562;28;45366;-69
2023/12/13 09:48:30;;;;;;;;;6.25;1.75;;;;;;;;5059089;28;45428;-70
2023/12/13 09:50:58;;;;;;;;;2.00;1.00;;;;;;;;5058104;28;45436;-70
2023/12/13 09:53:24;;;;;;;;;1.50;1.50;;;;;;;;5067285;28;45390;-70
2023/12/13 09:55:52;;;;;;;;;3.00;1.00;;;;;;;;5057790;28;45447;-70
2023/12/13 09:58:17;;;;;;;;;4.00;1.00;;;;;;;;5052325;28;45240;-70
2023/12/13 10:00:43;;;;;;;;;2.75;1.00;;;;;;;;5057892;28;45205;-69
2023/12/13 10:03:08;;;;;;;;;3.50;1.25;;;;;;;;5052870;28;45352;-70
2023/12/13 10:05:33;;;;;;;;;1.50;1.00;;;;;;;;5057341;28;45561;-72
2023/12/13 10:08:01;;;;;;;;;5.00;2.00;;;;;;;;5046696;28;45248;-70
2023/12/13 10:10:28;;;;;;;;;2.33;1.00;;;;;;;;5054835;28;45310;-70
2023/12/13 10:12:53;;;;;;;;;12.75;8.25;;;;;;;;5055111;28;45307;-69
2023/12/13 10:15:18;;;;;;;;;3.00;2.25;;;;;;;;5057170;28;45456;-70
2023/12/13 10:17:44;;;;;;;;;3.00;1.00;;;;;;;;5064906;28;45634;-70
2023/12/13 10:20:10;;;;;;;;;1.00;1.00;;;;;;;;5057687;28;45429;-70
2023/12/13 10:22:36;;;;;;;;;1.67;0.33;;;;;;;;5055251;28;45429;-70
2023/12/13 10:25:02;;;;;;;;;4.00;3.00;;;;;;;;5058163;28;45560;-70
2023/12/13 10:27:27;;;;;;;;;3.00;0.67;;;;;;;;5054334;28;45386;-69
2023/12/13 10:29:52;;;;;;;;;3.00;2.00;;;;;;;;5059000;28;45582;-69
2023/12/13 10:32:18;;;;;;;;;2.67;2.00;;;;;;;;5053315;28;45415;-69
2023/12/13 10:34:43;;;;;;;;;2.00;2.00;;;;;;;;5059098;28;47115;-69
2023/12/13 10:37:10;;;;;;;;;3.00;3.00;;;;;;;;5053033;28;45259;-69
2023/12/13 10:39:36;;;;;;;;;2.00;2.00;;;;;;;;5057670;28;45315;-69
2023/12/13 10:42:02;;;;;;;;;0.67;0.67;;;;;;;;5054682;28;45432;-72
2023/12/13 10:44:30;;;;;;;;;1.00;1.00;;;;;;;;5055943;28;47297;-72
2023/12/13 10:46:56;;;;;;;;;1.67;1.33;;;;;;;;5055956;28;45213;-72
2023/12/13 10:49:22;;;;;;;;;2.00;2.00;;;;;;;;5058066;28;45414;-72
2023/12/13 10:51:48;;;;;;;;;4.75;4.75;;;;;;;;5057133;28;44740;-71
2023/12/13 10:54:13;;;;;;;;;3.00;1.33;;;;;;;;5058929;28;45231;-69
2023/12/13 10:56:39;;;;;;;;;1.50;1.50;;;;;;;;5049692;28;45177;-69
2023/12/13 10:59:05;;;;;;;;;4.00;2.50;;;;;;;;5061035;28;45235;-72
2023/12/13 11:01:30;;;;;;;;;6.00;3.75;;;;;;;;5055981;28;45424;-72
2023/12/13 11:04:10;;;;;;;;;2.00;1.50;;;;;;;;5059952;28;45302;-72
2023/12/13 11:06:35;;;;;;;;;3.00;3.00;;;;;;;;5057421;28;45267;-71
2023/12/13 11:09:08;;;;;;;;;3.00;3.00;;;;;;;;5062302;28;45560;-69
2023/12/13 11:11:34;;;;;;;;;4.75;2.75;;;;;;;;5055873;28;45400;-72
2023/12/13 11:14:01;;;;;;;;;1.67;1.00;;;;;;;;5062366;28;45648;-71
2023/12/13 11:16:27;;;;;;;;;1.67;1.67;;;;;;;;5055478;28;45500;-71
2023/12/13 11:18:53;;;;;;;;;4.33;1.33;;;;;;;;5061145;28;44698;-71
2023/12/13 11:21:38;;;;;;;;;4.50;2.75;;;;;;;;5055890;28;45357;-71
2023/12/13 11:24:14;;;;;;;;;3.75;2.75;;;;;;;;5062549;28;46367;-71
2023/12/13 11:26:42;;;;;;;;;5.00;3.00;;;;;;;;5055773;28;45369;-71
2023/12/13 11:29:21;;;;;;;;;2.00;2.00;;;;;;;;5061258;28;45423;-71
2023/12/13 11:31:59;;;;;;;;;2.00;2.00;;;;;;;;5051770;28;45219;-71
2023/12/13 11:34:44;;;;;;;;;0.33;0.00;;;;;;;;5057741;28;46337;-71
2023/12/13 11:37:11;;;;;;;;;3.00;3.00;;;;;;;;5055964;28;45524;-71
2023/12/13 11:39:37;;;;;;;;;3.67;2.00;;;;;;;;5060890;28;45401;-71
2023/12/13 11:42:03;;;;;;;;;3.00;3.00;;;;;;;;5053684;28;45630;-71
2023/12/13 11:44:29;;;;;;;;;4.00;3.00;;;;;;;;5060966;28;46378;-71
2023/12/13 11:46:55;;;;;;;;;4.00;4.00;;;;;;;;5059774;28;45378;-71
2023/12/13 11:49:20;;;;;;;;;3.00;3.00;;;;;;;;5061328;28;45459;-71
2023/12/13 11:51:47;;;;;;;;;5.33;2.67;;;;;;;;5051695;28;45429;-71
2023/12/13 11:54:12;;;;;;;;;3.67;3.67;;;;;;;;5076823;28;48210;-71
2023/12/13 11:56:40;;;;;;;;;3.33;3.33;;;;;;;;5054709;28;45207;-71
2023/12/13 11:59:05;;;;;;;;;5.00;3.33;;;;;;;;5061646;28;45342;-71
2023/12/13 12:01:30;;;;;;;;;4.67;4.00;;;;;;;;5059155;28;45649;-71
2023/12/13 12:03:55;;;;;;;;;4.67;3.33;;;;;;;;5061564;28;45476;-71
2023/12/13 12:06:21;;;;;;;;;4.00;4.00;;;;;;;;5056275;28;45361;-71
2023/12/13 12:08:47;;;;;;;;;3.00;3.00;;;;;;;;5060790;28;45326;-71
2023/12/13 12:11:13;;;;;;;;;4.00;4.00;;;;;;;;5057148;28;45302;-71
2023/12/13 12:13:40;;;;;;;;;3.67;3.67;;;;;;;;5059085;28;46224;-71
2023/12/13 12:16:05;;;;;;;;;3.00;3.00;;;;;;;;5058080;28;45287;-71
2023/12/13 12:18:30;;;;;;;;;3.67;2.67;;;;;;;;5059150;28;45181;-71
2023/12/13 12:20:55;;;;;;;;;6.67;3.67;;;;;;;;5058946;28;45232;-71
2023/12/13 12:23:22;;;;;;;;;2.67;1.00;;;;;;;;5061121;28;45530;-71
2023/12/13 12:25:47;;;;;;;;;6.00;4.67;;;;;;;;5059409;28;45220;-71
2023/12/13 12:28:12;;;;;;;;;5.00;3.33;;;;;;;;5060088;28;45388;-72
2023/12/13 12:30:43;;;;;;;;;5.25;4.75;;;;;;;;5059025;28;45231;-72
2023/12/13 12:33:09;;;;;;;;;6.00;4.25;;;;;;;;5060821;28;45055;-72
2023/12/13 12:35:34;;;;;;;;;4.00;3.50;;;;;;;;5057941;28;45295;-72
2023/12/13 12:38:00;;;;;;;;;3.00;3.00;;;;;;;;5058930;28;45439;-71
2023/12/13 12:40:25;;;;;;;;;5.00;5.00;;;;;;;;5059487;28;45338;-71
2023/12/13 12:42:50;;;;;;;;;5.25;5.25;;;;;;;;5056184;28;45355;-71
2023/12/13 12:45:16;;;;;;;;;7.25;5.25;;;;;;;;5059241;28;45499;-71
2023/12/13 12:47:41;;;;;;;;;4.75;4.75;;;;;;;;5058261;28;45219;-71
2023/12/13 12:50:06;;;;;;;;;7.75;7.75;;;;;;;;5059654;28;45187;-71
2023/12/13 12:52:32;;;;;;;;;7.50;6.25;;;;;;;;5058740;28;45332;-72
2023/12/13 12:54:57;;;;;;;;;5.50;3.50;;;;;;;;5060610;28;44739;-72
2023/12/13 12:57:22;;;;;;;;;6.50;6.50;;;;;;;;5051332;28;44763;-72
2023/12/13 12:59:50;;;;;;;;;7.00;7.00;;;;;;;;5061235;28;45473;-72
2023/12/13 13:02:16;;;;;;;;;2.25;2.00;;;;;;;;5051398;28;46259;-72
2023/12/13 13:04:41;;;;;;;;;6.25;5.25;;;;;;;;5061088;28;45957;-72
2023/12/13 13:07:06;;;;;;;;;5.50;5.50;;;;;;;;5054701;28;45273;-72
2023/12/13 13:09:31;;;;;;;;;6.25;5.25;;;;;;;;5060447;28;45255;-72
2023/12/13 13:11:57;;;;;;;;;5.75;5.75;;;;;;;;5054722;28;45153;-72
2023/12/13 13:14:25;;;;;;;;;6.00;4.33;;;;;;;;5059549;28;45315;-72
2023/12/13 13:16:50;;;;;;;;;7.75;4.00;;;;;;;;5053856;28;45285;-72
2023/12/13 13:19:15;;;;;;;;;6.00;5.00;;;;;;;;5060479;28;45420;-72
2023/12/13 13:21:40;;;;;;;;;6.25;5.00;;;;;;;;5053917;28;45220;-72
2023/12/13 13:24:05;;;;;;;;;5.00;3.00;;;;;;;;5060772;28;45297;-72
2023/12/13 13:26:30;;;;;;;;;5.33;4.33;;;;;;;;5054111;28;44863;-72
2023/12/13 13:28:56;;;;;;;;;6.00;3.00;;;;;;;;5060650;28;45090;-72
2023/12/13 13:31:21;;;;;;;;;3.00;3.00;;;;;;;;5053716;28;46075;-71
2023/12/13 13:33:47;;;;;;;;;3.00;3.00;;;;;;;;5060337;28;45270;-72
2023/12/13 13:36:12;;;;;;;;;6.75;4.75;;;;;;;;5053744;28;45228;-72
2023/12/13 13:38:38;;;;;;;;;6.00;5.00;;;;;;;;5060270;28;45532;-72
2023/12/13 13:41:03;;;;;;;;;5.00;4.00;;;;;;;;5055866;28;45357;-72
2023/12/13 13:43:30;;;;;;;;;4.67;4.67;;;;;;;;5058071;28;45184;-72
2023/12/13 13:45:55;;;;;;;;;3.33;3.33;;;;;;;;5055791;28;45231;-72
2023/12/13 13:48:22;;;;;;;;;3.50;3.50;;;;;;;;5058667;28;45362;-72
2023/12/13 13:50:47;;;;;;;;;5.00;5.00;;;;;;;;5058092;28;45399;-71
2023/12/13 13:53:12;;;;;;;;;6.00;6.00;;;;;;;;5059761;28;45357;-72
2023/12/13 13:55:37;;;;;;;;;7.75;5.75;;;;;;;;5057827;28;45314;-72
2023/12/13 13:58:03;;;;;;;;;5.00;5.00;;;;;;;;5060072;28;45301;-71
2023/12/13 14:00:29;;;;;;;;;7.00;5.75;;;;;;;;5057409;28;45228;-71
2023/12/13 14:02:54;;;;;;;;;6.75;5.25;;;;;;;;5066284;28;45421;-71
2023/12/13 14:05:19;;;;;;;;;7.50;7.50;;;;;;;;5058747;28;45566;-71
2023/12/13 14:07:44;;;;;;;;;4.50;4.00;;;;;;;;5054005;28;45295;-72
2023/12/13 14:10:10;;;;;;;;;7.00;5.75;;;;;;;;5058362;28;45296;-71
2023/12/13 14:12:35;;;;;;;;;7.50;6.00;;;;;;;;5053142;28;45334;-71
2023/12/13 14:15:00;;;;;;;;;9.00;7.00;;;;;;;;5061988;28;44786;-72
2023/12/13 14:17:25;;;;;;;;;8.50;5.25;;;;;;;;5053703;28;45259;-72
2023/12/13 14:19:51;;;;;;;;;6.50;6.00;;;;;;;;5059443;28;45421;-72
2023/12/13 14:22:16;;;;;;;;;5.00;3.33;;;;;;;;5053147;28;45331;-72
2023/12/13 14:24:41;;;;;;;;;3.50;3.50;;;;;;;;5059540;28;45525;-72
2023/12/13 14:27:07;;;;;;;;;4.00;3.50;;;;;;;;5053161;28;45343;-72
2023/12/13 14:29:32;;;;;;;;;5.33;4.33;;;;;;;;5059398;28;45243;-72
2023/12/13 14:31:57;;;;;;;;;3.25;3.25;;;;;;;;5051055;28;45378;-72
2023/12/13 14:34:22;;;;;;;;;5.00;3.00;;;;;;;;5055263;28;45240;-72
2023/12/13 14:36:49;;;;;;;;;5.00;3.75;;;;;;;;5053245;28;45904;-72
2023/12/13 14:39:14;;;;;;;;;6.00;4.75;;;;;;;;5059440;28;45393;-72
2023/12/13 14:41:40;;;;;;;;;5.00;4.75;;;;;;;;5050888;28;45264;-72
2023/12/13 14:44:05;;;;;;;;;5.00;5.00;;;;;;;;5058037;28;45657;-72
2023/12/13 14:46:30;;;;;;;;;8.50;6.00;;;;;;;;5056244;28;44763;-72
2023/12/13 14:48:56;;;;;;;;;7.50;6.00;;;;;;;;5058415;28;45421;-72
2023/12/13 14:51:21;;;;;;;;;7.00;7.00;;;;;;;;5057201;28;45448;-72
2023/12/13 14:53:48;;;;;;;;;9.75;8.00;;;;;;;;5059425;28;45397;-72
2023/12/13 14:56:13;;;;;;;;;10.50;7.75;;;;;;;;5057146;28;45415;-72
2023/12/13 14:58:40;;;;;;;;;7.00;5.00;;;;;;;;5059164;28;45514;-72
2023/12/13 15:01:05;;;;;;;;;6.25;6.25;;;;;;;;5053042;28;45612;-72
2023/12/13 15:03:30;;;;;;;;;6.50;6.50;;;;;;;;5053910;28;45278;-72
2023/12/13 15:05:56;;;;;;;;;6.75;5.25;;;;;;;;5058640;28;45396;-72
2023/12/13 15:08:22;;;;;;;;;4.75;4.75;;;;;;;;5053650;28;45173;-72
2023/12/13 15:10:47;;;;;;;;;7.00;4.75;;;;;;;;5054608;28;45210;-72
2023/12/13 15:13:13;;;;;;;;;2.25;2.25;;;;;;;;5057168;28;45208;-72
2023/12/13 15:15:38;;;;;;;;;7.25;5.75;;;;;;;;5055138;28;45173;-71
2023/12/13 15:18:04;;;;;;;;;6.50;5.00;;;;;;;;5055672;28;45621;-72
2023/12/13 15:20:30;;;;;;;;;7.00;5.00;;;;;;;;5071599;28;45221;-72
2023/12/13 15:22:55;;;;;;;;;8.00;5.00;;;;;;;;5056835;28;45212;-72
2023/12/13 15:25:21;;;;;;;;;7.00;6.25;;;;;;;;5052044;28;45535;-72
2023/12/13 15:27:46;;;;;;;;;9.00;7.00;;;;;;;;5051542;28;45692;-72
2023/12/13 15:30:11;;;;;;;;;6.50;6.50;;;;;;;;5054606;28;45374;-72
2023/12/13 15:32:38;;;;;;;;;4.75;4.75;;;;;;;;5054481;28;45469;-72
2023/12/13 15:35:04;;;;;;;;;6.00;6.00;;;;;;;;5057569;28;45307;-72
2023/12/13 15:37:30;;;;;;;;;6.75;5.00;;;;;;;;5068973;28;47909;-72
2023/12/13 15:39:56;;;;;;;;;5.75;4.50;;;;;;;;5058431;28;45427;-72
2023/12/13 15:42:21;;;;;;;;;5.25;4.00;;;;;;;;5056064;28;45424;-72
2023/12/13 15:44:46;;;;;;;;;6.50;5.00;;;;;;;;5059776;28;45204;-72
2023/12/13 15:47:11;;;;;;;;;5.25;4.00;;;;;;;;5059204;28;46297;-72
2023/12/13 15:49:36;;;;;;;;;6.00;4.50;;;;;;;;5062135;28;45227;-72
2023/12/13 15:52:03;;;;;;;;;7.50;6.00;;;;;;;;5054935;28;44710;-72
2023/12/13 15:54:28;;;;;;;;;3.25;3.00;;;;;;;;5061923;28;45248;-72
2023/12/13 15:56:53;;;;;;;;;5.25;4.75;;;;;;;;5054471;28;45396;-72
2023/12/13 15:59:18;;;;;;;;;5.00;5.00;;;;;;;;5060041;28;45402;-72
2023/12/13 16:01:44;;;;;;;;;5.75;4.50;;;;;;;;5053849;28;45450;-72
2023/12/13 16:04:10;;;;;;;;;5.75;3.75;;;;;;;;5059957;28;45640;-72
2023/12/13 16:06:35;;;;;;;;;3.00;3.00;;;;;;;;5055622;28;45920;-72
2023/12/13 16:09:00;;;;;;;;;9.25;6.00;;;;;;;;5061131;28;45129;-72
2023/12/13 16:11:25;;;;;;;;;10.00;9.00;;;;;;;;5059976;28;45134;-72
2023/12/13 16:13:51;;;;;;;;;3.50;3.00;;;;;;;;5059826;28;46110;-72
2023/12/13 16:16:16;;;;;;;;;10.50;9.50;;;;;;;;5054942;28;45997;-72
2023/12/13 16:18:42;;;;;;;;;6.25;6.00;;;;;;;;5067793;28;45330;-72
2023/12/13 16:21:08;;;;;;;;;8.25;5.75;;;;;;;;5055256;28;45256;-72
2023/12/13 16:23:34;;;;;;;;;12.00;8.25;;;;;;;;5061085;28;45315;-72
2023/12/13 16:25:59;;;;;;;;;9.00;6.50;;;;;;;;5055108;28;45758;-72
2023/12/13 16:28:24;;;;;;;;;7.25;6.00;;;;;;;;5059523;28;45619;-72
2023/12/13 16:30:50;;;;;;;;;10.00;10.00;;;;;;;;5056209;28;45493;-72
2023/12/13 16:33:18;;;;;;;;;9.25;7.00;;;;;;;;5059992;28;45468;-72
2023/12/13 16:35:47;;;;;;;;;10.50;6.75;;;;;;;;5057230;28;45595;-72
2023/12/13 16:38:12;;;;;;;;;7.00;7.00;;;;;;;;5060565;28;45468;-72
2023/12/13 16:40:38;;;;;;;;;6.50;6.50;;;;;;;;5059067;28;45901;-72
2023/12/13 16:43:03;;;;;;;;;5.75;4.00;;;;;;;;5069702;28;46780;-72
2023/12/13 16:45:28;;;;;;;;;4.50;4.50;;;;;;;;5057814;28;45471;-72
2023/12/13 16:47:53;;;;;;;;;5.50;5.50;;;;;;;;5060311;28;45389;-72
2023/12/13 16:50:18;;;;;;;;;5.50;5.00;;;;;;;;5059352;28;45286;-72
2023/12/13 16:52:44;;;;;;;;;7.00;7.00;;;;;;;;5054025;28;44926;-72
2023/12/13 16:55:09;;;;;;;;;7.75;7.00;;;;;;;;5058996;28;45512;-73
2023/12/13 16:57:34;;;;;;;;;7.25;5.75;;;;;;;;5055541;28;45252;-72
2023/12/13 16:59:59;;;;;;;;;8.25;7.00;;;;;;;;5060464;28;45258;-72
2023/12/13 17:02:25;;;;;;;;;8.25;5.00;;;;;;;;5051092;28;46259;-72
2023/12/13 17:04:50;;;;;;;;;8.50;8.50;;;;;;;;5060790;28;45335;-72
2023/12/13 17:07:20;;;;;;;;;9.50;6.75;;;;;;;;5051725;28;45449;-72
2023/12/13 17:09:46;;;;;;;;;7.00;7.00;;;;;;;;5056387;28;45165;-72
2023/12/13 17:12:11;;;;;;;;;16.50;13.75;;;;;;;;5054538;28;45428;-72
2023/12/13 17:14:37;;;;;;;;;11.75;10.00;;;;;;;;5055853;28;47225;-72
2023/12/13 17:17:02;;;;;;;;;17.50;12.75;;;;;;;;5053654;28;45281;-72
2023/12/13 17:19:27;;;;;;;;;17.75;13.75;;;;;;;;5060645;28;44776;-72
2023/12/13 17:21:52;;;;;;;;;12.75;10.25;;;;;;;;5054627;28;45512;-72
2023/12/13 17:24:17;;;;;;;;;14.75;14.75;;;;;;;;5060229;28;46205;-72
2023/12/13 17:26:43;;;;;;;;;12.75;11.50;;;;;;;;5054438;28;44803;-73
2023/12/13 17:29:08;;;;;;;;;11.00;7.75;;;;;;;;5060475;28;45262;-72
2023/12/13 17:31:33;;;;;;;;;9.25;7.50;;;;;;;;5056730;28;45594;-72
2023/12/13 17:33:58;;;;;;;;;11.00;10.00;;;;;;;;5063197;28;46090;-72
2023/12/13 17:36:23;;;;;;;;;9.25;9.25;;;;;;;;5059149;28;45344;-72
2023/12/13 17:38:49;;;;;;;;;9.00;6.25;;;;;;;;5060207;28;45380;-72
2023/12/13 17:41:15;;;;;;;;;11.25;7.00;;;;;;;;5055921;28;45527;-72
2023/12/13 17:43:40;;;;;;;;;9.75;8.50;;;;;;;;5060125;28;45524;-72
2023/12/13 17:46:05;;;;;;;;;13.25;11.00;;;;;;;;5056167;28;45327;-72
2023/12/13 17:48:30;;;;;;;;;5.75;4.00;;;;;;;;5057318;28;45235;-72
2023/12/13 17:50:56;;;;;;;;;9.00;6.75;;;;;;;;5053649;28;45311;-72
2023/12/13 17:53:21;;;;;;;;;10.50;10.50;;;;;;;;5058248;28;45408;-72
2023/12/13 17:55:47;;;;;;;;;19.75;18.50;;;;;;;;5058135;28;45290;-72
2023/12/13 17:58:12;;;;;;;;;8.50;8.50;;;;;;;;5055588;28;45264;-72
2023/12/13 18:00:37;;;;;;;;;11.25;9.00;;;;;;;;5056947;28;45504;-72
2023/12/13 18:03:02;;;;;;;;;12.50;11.25;;;;;;;;5059276;28;45519;-73
2023/12/13 18:05:27;;;;;;;;;9.50;9.50;;;;;;;;5058208;28;45222;-72
2023/12/13 18:07:53;;;;;;;;;9.50;9.50;;;;;;;;5053943;28;44713;-73
2023/12/13 18:10:20;;;;;;;;;11.50;10.00;;;;;;;;5057671;28;45311;-73
2023/12/13 18:12:45;;;;;;;;;12.75;11.75;;;;;;;;5054924;28;45250;-72
2023/12/13 18:15:12;;;;;;;;;12.75;12.50;;;;;;;;5058011;28;45292;-72
2023/12/13 18:17:37;;;;;;;;;9.75;9.00;;;;;;;;5058281;28;45488;-72
2023/12/13 18:20:03;;;;;;;;;10.25;8.50;;;;;;;;5058833;28;45326;-73
2023/12/13 18:22:28;;;;;;;;;11.50;8.75;;;;;;;;5054246;28;45023;-72
2023/12/13 18:24:53;;;;;;;;;10.75;8.50;;;;;;;;5059442;28;45280;-72
2023/12/13 18:27:18;;;;;;;;;10.00;8.50;;;;;;;;5055161;28;45505;-72
2023/12/13 18:29:43;;;;;;;;;9.50;9.00;;;;;;;;5059118;28;45302;-72
2023/12/13 18:32:08;;;;;;;;;8.75;6.75;;;;;;;;5055557;28;45393;-72
2023/12/13 18:34:34;;;;;;;;;6.00;6.00;;;;;;;;5058065;28;45325;-72
2023/12/13 18:37:00;;;;;;;;;9.50;7.25;;;;;;;;5056106;28;45441;-73
2023/12/13 18:39:25;;;;;;;;;6.25;5.50;;;;;;;;5058981;28;45493;-72
2023/12/13 18:41:50;;;;;;;;;3.75;3.00;;;;;;;;5052693;28;46924;-71
2023/12/13 18:44:15;;;;;;;;;18.00;17.50;;;;;;;;5056534;28;45363;-71
2023/12/13 18:46:41;;;;;;;;;8.50;8.50;;;;;;;;5051004;28;45398;-72
2023/12/13 18:49:06;;;;;;;;;5.50;5.00;;;;;;;;5057939;28;45283;-72
2023/12/13 18:51:32;;;;;;;;;5.75;5.75;;;;;;;;5053510;28;45504;-72
2023/12/13 18:53:57;;;;;;;;;6.25;4.00;;;;;;;;5058001;28;45263;-72
2023/12/13 18:56:23;;;;;;;;;6.75;4.50;;;;;;;;5053135;28;45574;-71
2023/12/13 18:58:48;;;;;;;;;8.25;6.00;;;;;;;;5058662;28;45481;-72
2023/12/13 19:01:14;;;;;;;;;7.50;5.00;;;;;;;;5054058;28;46258;-72
2023/12/13 19:03:39;;;;;;;;;8.25;6.25;;;;;;;;5057389;28;45280;-71
2023/12/13 19:06:04;;;;;;;;;6.00;4.50;;;;;;;;5052714;28;45208;-71
2023/12/13 19:08:29;;;;;;;;;6.00;6.00;;;;;;;;5058800;28;45275;-72
2023/12/13 19:10:55;;;;;;;;;6.00;5.00;;;;;;;;5053347;28;45235;-72
2023/12/13 19:13:20;;;;;;;;;4.75;4.75;;;;;;;;5056219;28;45223;-71
2023/12/13 19:15:46;;;;;;;;;8.25;4.25;;;;;;;;5054951;28;45390;-71
2023/12/13 19:18:11;;;;;;;;;6.50;6.50;;;;;;;;5055202;28;46108;-71
2023/12/13 19:20:37;;;;;;;;;6.00;5.50;;;;;;;;5059713;28;46109;-71
2023/12/13 19:23:02;;;;;;;;;9.25;9.25;;;;;;;;5059672;28;45773;-72
2023/12/13 19:25:28;;;;;;;;;8.50;5.50;;;;;;;;5060816;28;45563;-71
2023/12/13 19:27:53;;;;;;;;;5.50;4.50;;;;;;;;5060142;28;45267;-71
2023/12/13 19:30:18;;;;;;;;;8.00;6.00;;;;;;;;5058952;28;47228;-71
2023/12/13 19:32:43;;;;;;;;;9.75;9.25;;;;;;;;5059970;28;45286;-71
2023/12/13 19:35:08;;;;;;;;;10.75;5.75;;;;;;;;5058631;28;45449;-71
2023/12/13 19:37:34;;;;;;;;;6.00;5.00;;;;;;;;5057397;28;45464;-71
2023/12/13 19:39:59;;;;;;;;;5.50;4.75;;;;;;;;5062120;28;45449;-72
2023/12/13 19:42:24;;;;;;;;;8.25;6.50;;;;;;;;5056582;28;45326;-71
2023/12/13 19:44:49;;;;;;;;;7.50;5.75;;;;;;;;5061982;28;45432;-73
2023/12/13 19:47:15;;;;;;;;;4.50;4.50;;;;;;;;5059275;28;45407;-72
2023/12/13 19:49:40;;;;;;;;;5.50;3.50;;;;;;;;5061836;28;46642;-71
2023/12/13 19:52:05;;;;;;;;;17.00;14.25;;;;;;;;5057992;28;45499;-71
2023/12/13 19:54:32;;;;;;;;;3.50;3.50;;;;;;;;5053969;28;45382;-71
2023/12/13 19:56:57;;;;;;;;;3.75;3.75;;;;;;;;5059319;28;45222;-71
2023/12/13 19:59:22;;;;;;;;;8.25;5.00;;;;;;;;5061650;28;46320;-72
2023/12/13 20:01:48;;;;;;;;;10.00;6.25;;;;;;;;5055645;28;45299;-72
2023/12/13 20:04:13;;;;;;;;;7.00;6.00;;;;;;;;5060595;28;45274;-71
2023/12/13 20:06:39;;;;;;;;;5.50;4.00;;;;;;;;5056752;28;45153;-71
2023/12/13 20:09:04;;;;;;;;;17.50;12.50;;;;;;;;5061460;28;45142;-72
2023/12/13 20:11:30;;;;;;;;;9.00;7.50;;;;;;;;5058068;28;45428;-72
2023/12/13 20:13:55;;;;;;;;;9.75;9.25;;;;;;;;5061634;28;45169;-72
2023/12/13 20:16:20;;;;;;;;;17.50;14.75;;;;;;;;5056426;28;45767;-71
2023/12/13 20:18:45;;;;;;;;;4.75;4.75;;;;;;;;5059769;28;44990;-70
2023/12/13 20:21:11;;;;;;;;;4.75;3.75;;;;;;;;5054838;28;45375;-71
2023/12/13 20:23:36;;;;;;;;;7.00;4.00;;;;;;;;5060450;28;45099;-72
2023/12/13 20:26:02;;;;;;;;;5.00;5.00;;;;;;;;5058504;28;45161;-72
2023/12/13 20:28:27;;;;;;;;;5.25;5.00;;;;;;;;5060990;28;46109;-72
2023/12/13 20:30:52;;;;;;;;;6.75;4.00;;;;;;;;5055619;28;45533;-72